Time;durP1;ratioP1;P1;durP2;ratioP2;P2;SDS_P1;SDS_P2;PMS_P1;PMS_P2;Temp;Humidity;BMP_temperature;BMP_pressure;BME280_temperature;BME280_humidity;BME280_pressure;Samples;Min_cycle;Max_cycle;Signal;HPM_P1;HPM_P2
2021/11/07 00:00:10;;;;;;;;;;;17.90;65.40;;;;;;5027638;28;19986;-65
2021/11/07 00:05:26;;;;;;;;;;;17.90;65.20;;;;;;5022628;28;19971;-65
2021/11/07 00:10:31;;;;;;;;;;;17.90;65.20;;;;;;4992078;28;20173;-65
2021/11/07 00:13:05;;;;;;;;;;;17.90;65.20;;;;;;5034875;28;19986;-65
2021/11/07 00:15:30;;;;;;;;;;;17.90;65.10;;;;;;5030450;28;20333;-65
2021/11/07 00:17:56;;;;;;;;;;;17.90;65.00;;;;;;5027373;28;19913;-66
2021/11/07 00:20:29;;;;;;;;;;;17.80;65.00;;;;;;5035375;28;19921;-65
2021/11/07 00:23:08;;;;;;;;;;;17.90;65.10;;;;;;5017602;28;19979;-65
2021/11/07 00:25:44;;;;;;;;;;;17.90;64.90;;;;;;5043280;28;19943;-63
2021/11/07 00:28:20;;;;;;;;;;;17.90;64.90;;;;;;5025162;28;19913;-63
2021/11/07 00:30:59;;;;;;;;;;;17.90;64.70;;;;;;5033634;28;19967;-63
2021/11/07 00:36:10;;;;;;;;;;;17.90;64.60;;;;;;5043794;28;20015;-63
2021/11/07 00:39:15;;;;;;;;;;;17.90;64.70;;;;;;5033691;28;19913;-63
2021/11/07 00:41:50;;;;;;;;;;;17.90;64.50;;;;;;5025603;28;20556;-64
2021/11/07 00:44:31;;;;;;;;;;;17.90;64.50;;;;;;5026325;28;19921;-65
2021/11/07 00:47:11;;;;;;;;;;;17.90;64.40;;;;;;5019783;28;19916;-63
2021/11/07 00:49:42;;;;;;;;;;;17.90;64.40;;;;;;5038836;28;19963;-63
2021/11/07 00:52:23;;;;;;;;;;;17.90;64.40;;;;;;5036131;28;19913;-61
2021/11/07 00:55:00;;;;;;;;;;;17.90;64.30;;;;;;5035373;28;19917;-63
2021/11/07 01:00:07;;;;;;;;;;;17.90;64.20;;;;;;5043358;28;19970;-63
2021/11/07 01:02:33;;;;;;;;;;;17.90;64.20;;;;;;5044958;28;19917;-63
2021/11/07 01:04:59;;;;;;;;;;;17.90;64.10;;;;;;5032385;28;19935;-64
2021/11/07 01:07:25;;;;;;;;;;;17.90;64.10;;;;;;5039380;28;19920;-64
2021/11/07 01:09:51;;;;;;;;;;;17.90;64.00;;;;;;5036432;28;20313;-63
2021/11/07 01:12:17;;;;;;;;;;;17.90;64.00;;;;;;5040075;28;20370;-64
2021/11/07 01:14:42;;;;;;;;;;;17.90;63.90;;;;;;5045009;28;20145;-64
2021/11/07 01:17:08;;;;;;;;;;;17.90;63.90;;;;;;5044214;28;20263;-64
2021/11/07 01:19:33;;;;;;;;;;;17.90;63.90;;;;;;5031568;28;19913;-63
2021/11/07 01:22:02;;;;;;;;;;;17.90;63.90;;;;;;5048917;28;19921;-64
2021/11/07 01:24:37;;;;;;;;;;;17.90;63.90;;;;;;5044277;28;19913;-63
2021/11/07 01:27:12;;;;;;;;;;;17.90;63.90;;;;;;5031756;28;19917;-63
2021/11/07 01:29:42;;;;;;;;;;;17.90;63.90;;;;;;5038122;28;20416;-64
2021/11/07 01:32:08;;;;;;;;;;;17.90;63.90;;;;;;5034704;28;19995;-64
2021/11/07 01:37:13;;;;;;;;;;;17.90;63.70;;;;;;5045380;28;19928;-63
2021/11/07 01:39:47;;;;;;;;;;;17.90;63.70;;;;;;5027939;28;19920;-65
2021/11/07 01:42:21;;;;;;;;;;;17.90;63.70;;;;;;5044600;28;19968;-64
2021/11/07 01:44:52;;;;;;;;;;;17.80;63.60;;;;;;5032336;28;19921;-64
2021/11/07 01:47:18;;;;;;;;;;;17.80;63.50;;;;;;5034820;28;19917;-65
2021/11/07 01:49:44;;;;;;;;;;;17.90;63.50;;;;;;5038320;28;19952;-64
2021/11/07 01:52:11;;;;;;;;;;;17.90;63.50;;;;;;5029613;28;19917;-63
2021/11/07 01:55:02;;;;;;;;;;;17.90;63.40;;;;;;5030297;28;19913;-64
2021/11/07 01:57:26;;;;;;;;;;;17.80;63.40;;;;;;5042652;28;20027;-63
2021/11/07 01:59:53;;;;;;;;;;;17.80;63.30;;;;;;5012794;28;19924;-64
2021/11/07 02:02:18;;;;;;;;;;;17.90;63.30;;;;;;5027953;28;20008;-63
2021/11/07 02:04:44;;;;;;;;;;;17.90;63.30;;;;;;5038082;28;19913;-63
2021/11/07 02:07:09;;;;;;;;;;;17.90;63.20;;;;;;5036856;28;19917;-63
2021/11/07 02:09:35;;;;;;;;;;;17.90;63.20;;;;;;5025669;28;19914;-64
2021/11/07 02:12:00;;;;;;;;;;;17.80;63.20;;;;;;5026634;28;20306;-63
2021/11/07 02:14:25;;;;;;;;;;;17.90;63.10;;;;;;5042798;28;19916;-63
2021/11/07 02:16:51;;;;;;;;;;;17.80;63.00;;;;;;5038095;28;19913;-63
2021/11/07 02:19:16;;;;;;;;;;;17.80;63.00;;;;;;5032108;28;19917;-63
2021/11/07 02:21:43;;;;;;;;;;;17.80;62.90;;;;;;5045277;28;19913;-63
2021/11/07 02:24:09;;;;;;;;;;;17.80;63.10;;;;;;5037957;28;19917;-64
2021/11/07 02:26:34;;;;;;;;;;;17.80;63.40;;;;;;5034816;28;20461;-63
2021/11/07 02:29:00;;;;;;;;;;;17.70;63.60;;;;;;5045489;28;20013;-62
2021/11/07 02:31:26;;;;;;;;;;;17.60;63.70;;;;;;5036939;28;19913;-63
2021/11/07 02:33:52;;;;;;;;;;;17.80;63.40;;;;;;5036392;28;19913;-63
2021/11/07 02:36:18;;;;;;;;;;;18.00;62.80;;;;;;5033752;28;20283;-63
2021/11/07 02:38:43;;;;;;;;;;;18.10;62.30;;;;;;5025224;28;19917;-63
2021/11/07 02:41:09;;;;;;;;;;;18.20;62.10;;;;;;5016246;28;19920;-63
2021/11/07 02:43:38;;;;;;;;;;;18.30;62.00;;;;;;5035184;28;19913;-62
2021/11/07 02:46:03;;;;;;;;;;;18.30;61.80;;;;;;5044592;28;19921;-63
2021/11/07 02:48:29;;;;;;;;;;;18.40;61.70;;;;;;5027680;28;19920;-63
2021/11/07 02:50:54;;;;;;;;;;;18.40;61.60;;;;;;5034933;28;20372;-62
2021/11/07 02:53:20;;;;;;;;;;;18.40;61.50;;;;;;5033383;28;20250;-61
2021/11/07 02:55:45;;;;;;;;;;;18.50;61.50;;;;;;5025032;28;19924;-64
2021/11/07 02:58:11;;;;;;;;;;;18.50;61.50;;;;;;5033341;28;20286;-63
2021/11/07 03:00:36;;;;;;;;;;;18.50;61.30;;;;;;5014745;28;19917;-60
2021/11/07 03:03:02;;;;;;;;;;;18.50;61.30;;;;;;5024666;28;19953;-63
2021/11/07 03:05:28;;;;;;;;;;;18.60;61.20;;;;;;5036755;28;19913;-65
2021/11/07 03:07:53;;;;;;;;;;;18.60;61.10;;;;;;5028275;28;20382;-65
2021/11/07 03:10:21;;;;;;;;;;;18.60;61.10;;;;;;5044945;28;19952;-65
2021/11/07 03:12:46;;;;;;;;;;;18.60;61.20;;;;;;5036521;28;20382;-65
2021/11/07 03:15:13;;;;;;;;;;;18.60;61.10;;;;;;5006553;28;19925;-63
2021/11/07 03:17:39;;;;;;;;;;;18.60;61.10;;;;;;5037235;28;19958;-63
2021/11/07 03:20:05;;;;;;;;;;;18.60;61.10;;;;;;5032429;28;19917;-65
2021/11/07 03:22:31;;;;;;;;;;;18.60;61.00;;;;;;5015280;28;20023;-64
2021/11/07 03:24:56;;;;;;;;;;;18.60;61.00;;;;;;5037742;28;20379;-65
2021/11/07 03:27:26;;;;;;;;;;;18.60;61.00;;;;;;5036328;28;20238;-65
2021/11/07 03:29:54;;;;;;;;;;;18.60;61.60;;;;;;5030985;28;19913;-64
2021/11/07 03:32:23;;;;;;;;;;;18.60;61.00;;;;;;5030186;28;19920;-65
2021/11/07 03:34:54;;;;;;;;;;;18.50;61.00;;;;;;5011082;28;20088;-64
2021/11/07 03:37:25;;;;;;;;;;;18.50;60.90;;;;;;5036910;28;19928;-64
2021/11/07 03:39:51;;;;;;;;;;;18.60;60.90;;;;;;5034626;28;20379;-65
2021/11/07 03:42:17;;;;;;;;;;;18.50;60.80;;;;;;5026127;28;19921;-64
2021/11/07 03:44:42;;;;;;;;;;;18.50;60.70;;;;;;5036820;28;19921;-64
2021/11/07 03:47:08;;;;;;;;;;;18.50;60.70;;;;;;5032361;28;20410;-63
2021/11/07 03:49:33;;;;;;;;;;;18.50;60.60;;;;;;5036443;28;19912;-62
2021/11/07 03:51:59;;;;;;;;;;;18.50;60.60;;;;;;5037796;28;19917;-63
2021/11/07 03:54:28;;;;;;;;;;;18.50;60.60;;;;;;5041629;28;19913;-64
2021/11/07 03:56:53;;;;;;;;;;;18.50;60.60;;;;;;5018356;28;19917;-64
2021/11/07 03:59:19;;;;;;;;;;;18.50;60.50;;;;;;5032607;28;19928;-63
2021/11/07 04:01:44;;;;;;;;;;;18.50;60.40;;;;;;5016383;28;19920;-63
2021/11/07 04:04:10;;;;;;;;;;;18.50;60.50;;;;;;5038960;28;20522;-61
2021/11/07 04:06:36;;;;;;;;;;;18.50;60.50;;;;;;5039233;28;19917;-64
2021/11/07 04:09:03;;;;;;;;;;;18.40;60.30;;;;;;5034089;28;19936;-63
2021/11/07 04:11:28;;;;;;;;;;;18.40;60.30;;;;;;5027971;28;19913;-64
2021/11/07 04:13:53;;;;;;;;;;;18.40;60.30;;;;;;5035000;28;20271;-64
2021/11/07 04:16:19;;;;;;;;;;;18.40;60.10;;;;;;5035255;28;19913;-64
2021/11/07 04:18:45;;;;;;;;;;;18.40;60.10;;;;;;5026592;28;20291;-64
2021/11/07 04:21:10;;;;;;;;;;;18.40;60.20;;;;;;5015606;28;19913;-64
2021/11/07 04:23:36;;;;;;;;;;;18.40;60.20;;;;;;5035101;28;19913;-64
2021/11/07 04:26:02;;;;;;;;;;;18.40;60.30;;;;;;5030518;28;19920;-63
2021/11/07 04:28:27;;;;;;;;;;;18.30;60.90;;;;;;5039147;28;19913;-64
2021/11/07 04:30:53;;;;;;;;;;;18.30;60.40;;;;;;5027158;28;19917;-64
2021/11/07 04:33:19;;;;;;;;;;;18.20;60.50;;;;;;5029802;28;20233;-64
2021/11/07 04:35:45;;;;;;;;;;;18.20;60.50;;;;;;5038486;28;19913;-64
2021/11/07 04:38:10;;;;;;;;;;;18.20;60.70;;;;;;5039418;28;19940;-64
2021/11/07 04:40:35;;;;;;;;;;;18.10;60.80;;;;;;5042174;28;19917;-64
2021/11/07 04:43:01;;;;;;;;;;;18.10;60.90;;;;;;5038469;28;20291;-60
2021/11/07 04:45:27;;;;;;;;;;;18.10;61.00;;;;;;5037959;28;19970;-64
2021/11/07 04:47:53;;;;;;;;;;;18.10;61.10;;;;;;5041320;28;19928;-64
2021/11/07 04:50:18;;;;;;;;;;;18.10;61.10;;;;;;5036589;28;19916;-63
2021/11/07 04:52:44;;;;;;;;;;;18.10;61.10;;;;;;5037996;28;20294;-63
2021/11/07 04:55:10;;;;;;;;;;;18.10;61.10;;;;;;5037005;28;19913;-63
2021/11/07 04:57:41;;;;;;;;;;;18.10;61.00;;;;;;5029728;28;19994;-64
2021/11/07 05:00:10;;;;;;;;;;;18.10;61.00;;;;;;5034613;28;19994;-64
2021/11/07 05:02:37;;;;;;;;;;;18.10;61.00;;;;;;5042659;28;20403;-63
2021/11/07 05:05:03;;;;;;;;;;;18.10;60.90;;;;;;5030259;28;19913;-63
2021/11/07 05:07:28;;;;;;;;;;;18.10;60.90;;;;;;5019711;28;19917;-62
2021/11/07 05:09:54;;;;;;;;;;;18.10;60.80;;;;;;5033149;28;19913;-65
2021/11/07 05:12:19;;;;;;;;;;;18.10;60.80;;;;;;5034303;28;19913;-63
2021/11/07 05:14:45;;;;;;;;;;;18.10;60.90;;;;;;5036222;28;20402;-64
2021/11/07 05:17:10;;;;;;;;;;;18.10;60.90;;;;;;5035594;28;19924;-63
2021/11/07 05:19:36;;;;;;;;;;;18.10;60.90;;;;;;5034562;28;19924;-63
2021/11/07 05:22:02;;;;;;;;;;;18.10;60.80;;;;;;5028222;28;19913;-64
2021/11/07 05:24:28;;;;;;;;;;;18.10;60.80;;;;;;5020286;28;19917;-63
2021/11/07 05:26:53;;;;;;;;;;;18.00;60.80;;;;;;5037771;28;20355;-64
2021/11/07 05:29:19;;;;;;;;;;;18.00;60.80;;;;;;5037761;28;19917;-64
2021/11/07 05:31:44;;;;;;;;;;;18.00;60.90;;;;;;5032789;28;20295;-64
2021/11/07 05:34:10;;;;;;;;;;;17.90;61.00;;;;;;5032931;28;19914;-64
2021/11/07 05:36:40;;;;;;;;;;;17.90;61.00;;;;;;5036709;28;19920;-64
2021/11/07 05:39:06;;;;;;;;;;;17.90;61.10;;;;;;5028476;28;20444;-64
2021/11/07 05:41:31;;;;;;;;;;;17.90;61.20;;;;;;5033448;28;19921;-64
2021/11/07 05:43:57;;;;;;;;;;;17.90;61.30;;;;;;5045613;28;19920;-64
2021/11/07 05:46:23;;;;;;;;;;;17.90;61.20;;;;;;5037359;28;19929;-64
2021/11/07 05:48:48;;;;;;;;;;;18.00;61.10;;;;;;5026614;28;19983;-63
2021/11/07 05:51:14;;;;;;;;;;;18.00;60.70;;;;;;5030141;28;19913;-64
2021/11/07 05:53:39;;;;;;;;;;;18.10;60.60;;;;;;5046157;28;19921;-64
2021/11/07 05:56:05;;;;;;;;;;;18.30;60.30;;;;;;5035656;28;20008;-63
2021/11/07 05:58:30;;;;;;;;;;;18.30;60.10;;;;;;5038959;28;19936;-65
2021/11/07 06:00:56;;;;;;;;;;;18.40;59.90;;;;;;5040948;28;20318;-63
2021/11/07 06:03:23;;;;;;;;;;;18.40;59.80;;;;;;5023416;28;19921;-63
2021/11/07 06:05:48;;;;;;;;;;;18.50;59.80;;;;;;5033666;28;19927;-64
2021/11/07 06:08:14;;;;;;;;;;;18.40;59.70;;;;;;5027582;28;19913;-63
2021/11/07 06:10:39;;;;;;;;;;;18.50;59.70;;;;;;5042653;28;19920;-64
2021/11/07 06:13:05;;;;;;;;;;;18.50;59.70;;;;;;5025997;28;19913;-65
2021/11/07 06:15:31;;;;;;;;;;;18.50;59.60;;;;;;5026832;28;19917;-64
2021/11/07 06:17:56;;;;;;;;;;;18.60;59.70;;;;;;5030147;28;20039;-63
2021/11/07 06:20:22;;;;;;;;;;;18.60;59.80;;;;;;5034216;28;20334;-64
2021/11/07 06:22:48;;;;;;;;;;;18.60;59.80;;;;;;5042891;28;19916;-63
2021/11/07 06:25:13;;;;;;;;;;;18.60;59.70;;;;;;5000526;28;20474;-67
2021/11/07 06:27:39;;;;;;;;;;;18.60;60.30;;;;;;5031618;28;19924;-65
2021/11/07 06:30:05;;;;;;;;;;;18.60;59.60;;;;;;5038023;28;20004;-64
2021/11/07 06:32:31;;;;;;;;;;;18.60;59.50;;;;;;5034501;28;19919;-67
2021/11/07 06:34:56;;;;;;;;;;;18.50;59.30;;;;;;5042351;28;19912;-67
2021/11/07 06:37:22;;;;;;;;;;;18.60;59.50;;;;;;5040614;28;19963;-65
2021/11/07 06:39:47;;;;;;;;;;;18.50;59.40;;;;;;5037120;28;20121;-66
2021/11/07 06:42:13;;;;;;;;;;;18.50;59.40;;;;;;5041653;28;20281;-65
2021/11/07 06:44:38;;;;;;;;;;;18.50;59.30;;;;;;5033052;28;20191;-68
2021/11/07 06:47:04;;;;;;;;;;;18.50;59.30;;;;;;5027767;28;19917;-67
2021/11/07 06:49:29;;;;;;;;;;;18.50;59.30;;;;;;5033752;28;20007;-66
2021/11/07 06:51:55;;;;;;;;;;;18.50;59.40;;;;;;5033084;28;20363;-65
2021/11/07 06:54:22;;;;;;;;;;;18.50;59.30;;;;;;5026987;28;19921;-65
2021/11/07 06:56:47;;;;;;;;;;;18.50;59.20;;;;;;5027079;28;19913;-66
2021/11/07 06:59:12;;;;;;;;;;;18.50;59.10;;;;;;5018756;28;19991;-66
2021/11/07 07:01:38;;;;;;;;;;;18.50;59.10;;;;;;5037952;28;19919;-65
2021/11/07 07:04:04;;;;;;;;;;;18.50;59.10;;;;;;5033155;28;19945;-66
2021/11/07 07:06:29;;;;;;;;;;;18.40;59.10;;;;;;5037427;28;19923;-64
2021/11/07 07:09:02;;;;;;;;;;;18.40;59.10;;;;;;5029369;28;19917;-66
2021/11/07 07:11:51;;;;;;;;;;;18.40;59.10;;;;;;5013179;28;19913;-67
2021/11/07 07:16:45;;;;;;;;;;;18.30;59.20;;;;;;5030383;28;19976;-65
2021/11/07 07:27:20;;;;;;;;;;;18.30;59.30;;;;;;5037613;28;20051;-61
2021/11/07 07:30:05;;;;;;;;;;;18.30;59.30;;;;;;5039209;28;19975;-67
2021/11/07 07:35:32;;;;;;;;;;;18.30;59.30;;;;;;4971178;28;19914;-66
2021/11/07 07:37:57;;;;;;;;;;;18.30;59.40;;;;;;5018201;28;19920;-65
2021/11/07 07:40:23;;;;;;;;;;;18.20;59.30;;;;;;5033098;28;20429;-65
2021/11/07 07:42:49;;;;;;;;;;;18.20;59.40;;;;;;5037045;28;20260;-66
2021/11/07 07:45:15;;;;;;;;;;;18.20;59.30;;;;;;5031078;28;19964;-65
2021/11/07 07:47:43;;;;;;;;;;;18.20;59.50;;;;;;5044694;28;19921;-65
2021/11/07 07:50:08;;;;;;;;;;;18.20;59.60;;;;;;5033401;28;19913;-66
2021/11/07 07:52:34;;;;;;;;;;;18.10;59.60;;;;;;5028515;28;20417;-65
2021/11/07 07:54:59;;;;;;;;;;;18.10;59.70;;;;;;5014986;28;20429;-64
2021/11/07 07:57:25;;;;;;;;;;;18.00;59.80;;;;;;5033362;28;19971;-66
2021/11/07 07:59:50;;;;;;;;;;;18.00;59.80;;;;;;5043682;28;20660;-65
2021/11/07 08:02:16;;;;;;;;;;;18.00;59.90;;;;;;5041458;28;19939;-66
2021/11/07 08:04:41;;;;;;;;;;;18.00;59.90;;;;;;5037499;28;19913;-64
2021/11/07 08:07:07;;;;;;;;;;;18.00;60.40;;;;;;5039947;28;19917;-65
2021/11/07 08:09:32;;;;;;;;;;;17.90;60.60;;;;;;5038033;28;20189;-66
2021/11/07 08:11:58;;;;;;;;;;;17.90;60.70;;;;;;5035160;28;19913;-66
2021/11/07 08:14:23;;;;;;;;;;;17.90;60.80;;;;;;5024746;28;20012;-67
2021/11/07 08:16:49;;;;;;;;;;;17.90;60.80;;;;;;5029557;28;19913;-66
2021/11/07 08:19:16;;;;;;;;;;;17.90;60.80;;;;;;5039897;28;19913;-64
2021/11/07 08:21:42;;;;;;;;;;;17.90;60.80;;;;;;5035752;28;19957;-63
2021/11/07 08:24:08;;;;;;;;;;;17.80;60.70;;;;;;5035503;28;19913;-64
2021/11/07 08:26:35;;;;;;;;;;;17.80;60.70;;;;;;5025423;28;19946;-65
2021/11/07 08:29:00;;;;;;;;;;;17.80;60.80;;;;;;5037979;28;20311;-63
2021/11/07 08:31:28;;;;;;;;;;;17.80;60.80;;;;;;5014387;28;19920;-65
2021/11/07 08:33:54;;;;;;;;;;;17.80;60.80;;;;;;5038810;28;20353;-66
2021/11/07 08:36:23;;;;;;;;;;;17.80;60.70;;;;;;5042736;28;20012;-65
2021/11/07 08:39:02;;;;;;;;;;;17.80;60.50;;;;;;5026692;28;19925;-67
2021/11/07 08:41:30;;;;;;;;;;;17.80;60.40;;;;;;5031367;28;20352;-66
2021/11/07 09:05:32;;;;;;;;;;;17.80;59.90;;;;;;5031804;28;19987;-65
2021/11/07 09:10:28;;;;;;;;;;;17.70;60.10;;;;;;5027853;28;19927;-66
2021/11/07 09:12:54;;;;;;;;;;;17.80;59.90;;;;;;5043150;28;19913;-67
2021/11/07 09:15:20;;;;;;;;;;;17.90;59.70;;;;;;5034211;28;20390;-65
2021/11/07 09:17:47;;;;;;;;;;;18.10;59.30;;;;;;5045268;28;20000;-67
2021/11/07 09:20:19;;;;;;;;;;;18.20;59.10;;;;;;5035066;28;19955;-66
2021/11/07 09:22:55;;;;;;;;;;;18.20;58.80;;;;;;5039970;28;20346;-64
2021/11/07 09:25:27;;;;;;;;;;;18.30;58.80;;;;;;5039378;28;19913;-66
2021/11/07 09:28:17;;;;;;;;;;;18.30;58.80;;;;;;5027782;28;20702;-66
2021/11/07 09:33:24;;;;;;;;;;;18.40;58.80;;;;;;5028251;28;19966;-65
2021/11/07 09:36:12;;;;;;;;;;;18.40;58.80;;;;;;5038011;28;20440;-66
2021/11/07 09:41:37;;;;;;;;;;;18.40;58.90;;;;;;4989582;28;19917;-65
2021/11/07 09:44:11;;;;;;;;;;;18.40;58.90;;;;;;5038916;28;19984;-66
2021/11/07 09:46:41;;;;;;;;;;;18.40;59.00;;;;;;5039202;28;20000;-66
2021/11/07 09:49:22;;;;;;;;;;;18.40;59.00;;;;;;5030953;28;20195;-67
2021/11/07 09:51:54;;;;;;;;;;;18.40;59.00;;;;;;5035211;28;20387;-63
2021/11/07 09:54:20;;;;;;;;;;;18.50;59.10;;;;;;5030224;28;20465;-65
2021/11/07 09:56:50;;;;;;;;;;;18.50;59.50;;;;;;5028740;28;19960;-67
2021/11/07 09:59:15;;;;;;;;;;;18.50;59.80;;;;;;5042483;28;19924;-68
2021/11/07 10:01:41;;;;;;;;;;;18.50;59.90;;;;;;5030567;28;20277;-65
2021/11/07 10:04:06;;;;;;;;;;;18.50;60.30;;;;;;5037793;28;20293;-65
2021/11/07 10:06:37;;;;;;;;;;;18.50;60.20;;;;;;5034073;28;19960;-67
2021/11/07 10:09:03;;;;;;;;;;;18.50;60.60;;;;;;5032806;28;19975;-67
2021/11/07 10:11:38;;;;;;;;;;;18.50;60.60;;;;;;5022924;28;19913;-66
2021/11/07 10:14:11;;;;;;;;;;;18.50;60.90;;;;;;5034449;28;19959;-66
2021/11/07 10:16:45;;;;;;;;;;;18.60;61.00;;;;;;5030718;28;26212;-67
2021/11/07 10:19:16;;;;;;;;;;;18.50;61.00;;;;;;5020307;28;19920;-66
2021/11/07 10:21:45;;;;;;;;;;;18.50;60.80;;;;;;5033809;28;19948;-66
2021/11/07 10:24:16;;;;;;;;;;;18.50;60.70;;;;;;5033466;28;19913;-67
2021/11/07 10:26:43;;;;;;;;;;;18.50;60.50;;;;;;5026952;28;19918;-66
2021/11/07 10:29:20;;;;;;;;;;;18.50;60.50;;;;;;5019163;28;20261;-63
2021/11/07 10:31:58;;;;;;;;;;;18.60;60.50;;;;;;5002211;28;19914;-64
2021/11/07 10:34:39;;;;;;;;;;;18.60;60.40;;;;;;5027678;28;19952;-64
2021/11/07 10:37:58;;;;;;;;;;;18.60;60.20;;;;;;5028598;28;19917;-66
2021/11/07 10:45:39;;;;;;;;;;;18.60;58.20;;;;;;5027478;28;19924;-66
2021/11/07 10:53:48;;;;;;;;;;;18.60;57.10;;;;;;5025709;28;19924;-65
2021/11/07 10:56:13;;;;;;;;;;;18.50;56.70;;;;;;5025899;28;19913;-65
2021/11/07 10:58:40;;;;;;;;;;;18.50;56.70;;;;;;5025433;28;20301;-67
2021/11/07 11:01:06;;;;;;;;;;;18.50;56.50;;;;;;5025653;28;19917;-66
2021/11/07 11:03:31;;;;;;;;;;;18.40;56.40;;;;;;5025689;28;19921;-65
2021/11/07 11:08:33;;;;;;;;;;;18.50;56.00;;;;;;5026346;28;20467;-66
2021/11/07 11:13:58;;;;;;;;;;;18.40;55.10;;;;;;4998827;28;19920;-65
2021/11/07 11:24:06;;;;;;;;;;;18.40;54.50;;;;;;5025169;28;20269;-66
2021/11/07 11:32:05;;;;;;;;;;;18.40;55.00;;;;;;5011685;28;19952;-66
2021/11/07 11:34:40;;;;;;;;;;;18.40;55.10;;;;;;5025628;28;19966;-65
2021/11/07 11:37:15;;;;;;;;;;;18.40;55.10;;;;;;5027559;28;19992;-65
2021/11/07 11:39:45;;;;;;;;;;;18.30;54.50;;;;;;5009785;28;20004;-65
2021/11/07 11:42:18;;;;;;;;;;;18.30;54.50;;;;;;5026881;28;19920;-65
2021/11/07 11:44:45;;;;;;;;;;;18.30;54.50;;;;;;5026251;28;20397;-65
2021/11/07 11:47:30;;;;;;;;;;;18.30;54.80;;;;;;5028023;28;19917;-67
2021/11/07 12:00:49;;;;;;;8.02;1.10;;;18.20;55.30;;;;;;5098530;28;19920;-56
2021/11/07 12:06:32;;;;;;;6.40;1.00;;;18.10;55.80;;;;;;5078738;28;20037;-56
2021/11/07 12:12:03;;;;;;;2.95;0.93;;;18.00;56.50;;;;;;5098896;28;20028;-57
2021/11/07 12:14:41;;;;;;;4.93;1.10;;;18.00;56.80;;;;;;5100318;28;20055;-54
2021/11/07 12:17:12;;;;;;;5.75;1.35;;;18.00;57.00;;;;;;5099291;28;20509;-60
2021/11/07 12:19:41;;;;;;;3.28;1.08;;;18.00;57.10;;;;;;5098596;28;20031;-55
2021/11/07 12:22:28;;;;;;;0.75;0.57;;;18.00;57.20;;;;;;5098525;28;20077;-59
2021/11/07 12:24:58;;;;;;;7.78;0.98;;;18.00;57.30;;;;;;5097422;28;20054;-56
2021/11/07 12:27:36;;;;;;;4.82;1.17;;;18.00;57.40;;;;;;5098055;28;20080;-56
2021/11/07 12:30:24;;;;;;;1.17;0.73;;;18.00;57.50;;;;;;5099197;28;20028;-56
2021/11/07 12:33:00;;;;;;;2.72;0.85;;;18.00;57.60;;;;;;5086639;28;20031;-55
2021/11/07 12:35:38;;;;;;;1.98;1.08;;;17.90;57.60;;;;;;5074024;28;20244;-58
2021/11/07 12:41:15;;;;;;;2.90;0.95;;;17.90;58.00;;;;;;5078509;28;20079;-51
2021/11/07 12:44:01;;;;;;;2.00;1.52;;;17.90;58.20;;;;;;5076617;28;20668;-53
2021/11/07 12:48:59;;;;;;;4.43;0.82;;;17.90;58.60;;;;;;5100168;28;20096;-53
2021/11/07 12:51:36;;;;;;;2.15;0.88;;;17.90;58.60;;;;;;5097848;28;20039;-56
2021/11/07 12:54:13;;;;;;;1.50;1.02;;;17.90;58.70;;;;;;5081568;28;20024;-53
2021/11/07 12:57:01;;;;;;;6.32;1.08;;;17.90;58.90;;;;;;5099969;28;20043;-56
2021/11/07 12:59:50;;;;;;;7.35;1.52;;;17.90;59.00;;;;;;5098903;28;20105;-56
2021/11/07 13:02:18;;;;;;;1.75;0.80;;;17.90;59.20;;;;;;5099868;28;20028;-57
2021/11/07 13:05:05;;;;;;;3.63;0.90;;;17.90;59.20;;;;;;5100240;28;20020;-57
2021/11/07 13:08:03;;;;;;;2.65;0.77;;;17.80;59.20;;;;;;5097878;28;20032;-56
2021/11/07 13:10:59;;;;;;;4.20;1.05;;;17.80;59.40;;;;;;5085760;28;20111;-57
2021/11/07 13:16:07;;;;;;;6.53;0.90;;;17.70;59.80;;;;;;5067245;28;20052;-54
2021/11/07 13:18:45;;;;;;;4.65;1.00;;;17.70;59.60;;;;;;5085197;28;20024;-57
2021/11/07 13:26:48;;;;;;;4.40;1.10;;;17.90;59.20;;;;;;5068925;28;20073;-57
2021/11/07 13:29:32;;;;;;;4.30;1.35;;;18.00;59.20;;;;;;5083654;28;20020;-60
2021/11/07 13:34:26;;;;;;;11.60;2.80;;;18.10;59.90;;;;;;5045938;28;20048;-57
2021/11/07 13:36:52;;;;;;;13.77;2.85;;;18.20;60.90;;;;;;5064088;28;20121;-51
2021/11/07 13:39:26;;;;;;;11.77;3.47;;;18.30;61.40;;;;;;5064609;28;20039;-56
2021/11/07 13:42:14;;;;;;;7.60;2.55;;;18.30;61.50;;;;;;5064162;28;20059;-56
2021/11/07 13:45:00;;;;;;;8.18;2.38;;;18.30;61.40;;;;;;5029236;28;20143;-54
2021/11/07 13:47:29;;;;;;;8.20;2.40;;;18.40;62.20;;;;;;5063368;28;20025;-56
2021/11/07 13:49:55;;;;;;;11.43;2.80;;;18.40;62.10;;;;;;5062837;28;20028;-57
2021/11/07 13:52:21;;;;;;;9.75;2.42;;;18.40;62.20;;;;;;5062581;28;20028;-56
2021/11/07 13:54:46;;;;;;;7.25;2.13;;;18.30;61.60;;;;;;5063527;28;20040;-55
2021/11/07 13:57:12;;;;;;;8.32;2.28;;;18.30;61.70;;;;;;5063770;28;20033;-55
2021/11/07 13:59:40;;;;;;;9.00;2.70;;;18.30;61.80;;;;;;5044289;28;20040;-56
2021/11/07 14:02:20;;;;;;;6.90;1.85;;;18.30;61.60;;;;;;5062777;28;20509;-55
2021/11/07 14:04:53;;;;;;;8.18;2.15;;;18.30;61.90;;;;;;5060673;28;20505;-54
2021/11/07 14:07:22;;;;;;;10.40;1.90;;;18.30;61.90;;;;;;5053919;28;20021;-56
2021/11/07 14:10:14;;;;;;;6.22;1.65;;;18.20;61.60;;;;;;5059599;28;20052;-56
2021/11/07 14:12:42;;;;;;;7.10;2.00;;;18.20;61.40;;;;;;5061750;28;20041;-52
2021/11/07 14:15:28;;;;;;;8.90;1.50;;;18.20;61.30;;;;;;5043298;28;20028;-56
2021/11/07 14:18:16;;;;;;;5.47;1.55;;;18.20;61.20;;;;;;5062478;28;20111;-58
2021/11/07 14:20:46;;;;;;;8.50;1.35;;;18.20;61.20;;;;;;5061922;28;20497;-57
2021/11/07 14:23:18;;;;;;;8.82;1.50;;;18.10;61.10;;;;;;5062586;28;20112;-53
2021/11/07 14:25:49;;;;;;;5.65;2.05;;;18.10;61.10;;;;;;5062634;28;20111;-53
2021/11/07 14:28:35;;;;;;;4.55;1.33;;;18.10;61.10;;;;;;5062484;28;20032;-55
2021/11/07 14:31:02;;;;;;;5.85;1.70;;;18.10;61.00;;;;;;5060641;28;20062;-58
2021/11/07 14:33:33;;;;;;;6.93;1.65;;;18.10;61.00;;;;;;5060888;28;20029;-57
2021/11/07 14:36:14;;;;;;;2.78;1.20;;;18.10;60.90;;;;;;5041280;28;20625;-57
2021/11/07 14:38:43;;;;;;;5.15;1.75;;;18.10;61.00;;;;;;5046450;28;20021;-57
2021/11/07 14:41:22;;;;;;;4.90;1.48;;;18.10;60.90;;;;;;5044924;28;20211;-57
2021/11/07 14:46:30;;;;;;;6.93;1.58;;;18.00;60.90;;;;;;5061860;28;20025;-55
2021/11/07 14:49:16;;;;;;;8.75;1.55;;;18.00;60.90;;;;;;5061696;28;20087;-56
2021/11/07 14:54:28;;;;;;;8.07;1.95;;;18.00;61.10;;;;;;5061242;28;20031;-55
2021/11/07 14:59:37;;;;;;;11.27;2.25;;;18.00;61.70;;;;;;5062441;28;20036;-54
2021/11/07 15:08:13;;;;;;;9.57;2.30;;;18.00;62.00;;;;;;5060999;28;20040;-58
2021/11/07 15:10:47;;;;;;;5.07;1.83;;;18.00;62.50;;;;;;5062330;28;20554;-56
2021/11/07 15:16:05;;;;;;;8.57;2.20;;;18.00;61.70;;;;;;4985332;28;20262;-57
2021/11/07 15:18:41;;;;;;;13.27;2.28;;;18.00;61.70;;;;;;5061511;28;20024;-57
2021/11/07 15:21:14;;;;;;;9.07;1.80;;;18.00;61.60;;;;;;5058446;28;20028;-57
2021/11/07 15:23:41;;;;;;;9.63;2.33;;;18.00;61.50;;;;;;5061929;28;20021;-58
2021/11/07 15:26:11;;;;;;;13.10;2.10;;;18.00;61.60;;;;;;5044517;28;20044;-55
2021/11/07 15:28:37;;;;;;;5.03;2.45;;;18.00;61.60;;;;;;5062839;28;20025;-55
2021/11/07 15:31:02;;;;;;;15.40;2.85;;;18.00;61.50;;;;;;5056467;28;20130;-62
2021/11/07 15:33:53;;;;;;;;;;;18.00;61.60;;;;;;5053684;27;20384;-55
2021/11/07 15:36:37;;;;;;;11.90;3.03;;;17.90;61.60;;;;;;5039420;28;19913;-52
2021/11/07 15:39:05;;;;;;;15.55;2.88;;;17.90;61.70;;;;;;5039282;28;20246;-59
2021/11/07 15:41:31;;;;;;;13.65;2.85;;;17.90;61.70;;;;;;5037811;28;20541;-57
2021/11/07 15:44:03;;;;;;;10.48;2.42;;;17.90;61.70;;;;;;5020334;28;20034;-57
2021/11/07 15:46:28;;;;;;;16.05;3.33;;;17.90;61.70;;;;;;5036234;28;20037;-54
2021/11/07 15:48:55;;;;;;;12.88;2.83;;;17.90;61.70;;;;;;5038156;28;20029;-56
2021/11/07 15:51:28;;;;;;;13.10;2.75;;;17.90;61.80;;;;;;5038269;28;20031;-57
2021/11/07 15:54:02;;;;;;;12.30;3.17;;;17.90;61.90;;;;;;5038013;28;20040;-58
2021/11/07 15:59:24;;;;;;;10.00;2.63;;;17.90;61.90;;;;;;5037806;28;20041;-58
2021/11/07 16:17:02;;;;;;;12.18;3.13;;;17.90;62.20;;;;;;5036429;28;20049;-57
2021/11/07 16:19:30;;;;;;;13.60;3.72;;;17.90;62.30;;;;;;5037354;28;20028;-55
2021/11/07 16:21:56;;;;;;;11.32;3.30;;;17.90;62.30;;;;;;5038629;28;20121;-56
2021/11/07 16:24:23;;;;;;;8.98;2.55;;;17.90;62.20;;;;;;5038244;28;20459;-56
2021/11/07 16:26:54;;;;;;;11.48;3.38;;;17.90;62.40;;;;;;5053171;28;20445;-54
2021/11/07 16:29:25;;;;;;;8.90;2.30;;;17.90;62.30;;;;;;5038312;28;20060;-54
2021/11/07 16:34:30;;;;;;;11.65;2.53;;;17.90;62.40;;;;;;5037404;28;20083;-57
2021/11/07 16:36:57;;;;;;;6.80;2.60;;;17.90;62.40;;;;;;5035808;28;20088;-57
2021/11/07 16:39:31;;;;;;;8.95;2.10;;;17.90;62.30;;;;;;5035662;28;20030;-56
2021/11/07 16:42:00;;;;;;;12.05;2.72;;;17.90;62.40;;;;;;5037489;28;20033;-56